Flight Track Log - Related Links

Times and Time Zones

All times are in EDT time to prevent confusion due to time zone crossing. See the IRO7343 flight status page for this flight to view local times or setup timezone preferences in your user account.

Time Position Orientation Groundspeed Altitude Reporting Facility
EDT Latitude Longitude Course Direction KTS MPH feet Rate Location/Type
Mon 07:53:10 PM 44.7119 -85.5894 179° South 96 110 1,400  Level Chicago Center
Mon 07:54:26 PM 44.6797 -85.5886 179° South 97 112 2,200 569 Climbing Minneapolis Center
Mon 07:55:27 PM 44.6589 -85.5872 177° South 97 112 2,700 634 Climbing Minneapolis Center
Mon 07:56:29 PM 44.6278 -85.5847 177° South 95 109 3,500 774 Climbing Minneapolis Center
Mon 07:57:31 PM 44.5994 -85.5844 180° South 89 102 4,300 677 Climbing Minneapolis Center
Mon 07:58:33 PM 44.5758 -85.5831 178° South 87 100 4,900 293 Climbing Minneapolis Center
Mon 07:59:34 PM 44.5489 -85.5822 179° South 89 102 4,900 48 Level Minneapolis Center
Mon 08:00:37 PM 44.5142 -85.5822 180° South 108 124 5,000 44 Climbing Minneapolis Center
Mon 08:01:50 PM 44.4772 -85.5814 179° South 127 146 5,000  Level Minneapolis Center
Mon 08:02:52 PM 44.4328 -85.5792 178° South 132 152 5,000  Level Minneapolis Center
Mon 08:03:54 PM 44.3947 -85.5786 179° South 134 154 5,000  Level Minneapolis Center
Mon 08:04:56 PM 44.3486 -85.5756 177° South 137 158 5,000  Level Minneapolis Center
Mon 08:05:57 PM 44.3178 -85.5753 180° South 138 159 5,000  Level Minneapolis Center
Mon 08:06:59 PM 44.2725 -85.5731 178° South 136 157 5,000  Level Minneapolis Center
Mon 08:08:01 PM 44.2344 -85.5719 179° South 136 157 5,000  Level Minneapolis Center
Mon 08:09:03 PM 44.1967 -85.5711 179° South 136 157 5,000  Level Minneapolis Center
Mon 08:10:04 PM 44.1594 -85.5689 178° South 135 155 5,000  Level Minneapolis Center
Mon 08:11:06 PM 44.1217 -85.5678 179° South 135 155 5,000  Level Minneapolis Center
Mon 08:12:08 PM 44.0775 -85.5689 181° South 133 153 5,000  Level Minneapolis Center
Mon 08:13:09 PM 44.0453 -85.5667 177° South 132 152 5,000  Level Minneapolis Center
Mon 08:14:11 PM 44.0083 -85.5642 177° South 133 153 5,000  Level Minneapolis Center
Mon 08:15:13 PM 43.9706 -85.5628 178° South 135 155 5,000  Level Minneapolis Center
Mon 08:16:14 PM 43.9328 -85.5611 178° South 136 157 5,000  Level Minneapolis Center
Mon 08:17:16 PM 43.8881 -85.5594 178° South 135 155 5,000  Level Minneapolis Center
Mon 08:18:18 PM 43.8503 -85.5583 179° South 135 155 5,000  Level Minneapolis Center
Mon 08:19:20 PM 43.8125 -85.5567 178° South 135 155 5,000 48 Level Minneapolis Center
Mon 08:20:22 PM 43.7744 -85.5547 178° South 136 157 5,100 49 Climbing Minneapolis Center
Mon 08:21:23 PM 43.7369 -85.5525 178° South 136 157 5,100  Level Minneapolis Center
Mon 08:22:25 PM 43.6992 -85.5514 179° South 135 155 5,100  Level Minneapolis Center
Mon 08:23:27 PM 43.6531 -85.5503 179° South 137 158 5,100 -97 Level Minneapolis Center
Mon 08:24:29 PM 43.6147 -85.5506 180° South 139 160 4,900 -98 Descending Minneapolis Center
Mon 08:25:30 PM 43.5756 -85.5494 179° South 140 161 4,900 -49 Level Minneapolis Center
Mon 08:26:32 PM 43.5381 -85.5483 179° South 137 158 4,800 -145 Descending Minneapolis Center
Mon 08:27:34 PM 43.5006 -85.5486 180° South 136 157 4,600 -242 Descending Minneapolis Center
Mon 08:28:36 PM 43.4622 -85.5481 179° South 136 157 4,300 -293 Descending Minneapolis Center
Mon 08:29:37 PM 43.4250 -85.5475 179° South 135 155 4,000 -293 Descending Minneapolis Center
Mon 08:30:39 PM 43.3794 -85.5472 180° South 136 157 3,700 -288 Descending Minneapolis Center
Mon 08:31:21 PM 43.3567 -85.5442 174° South 136 157 3,500 -346 Descending Chicago Center
Mon 08:32:23 PM 43.3183 -85.5425 178° South 137 158 3,100 -339 Descending Chicago Center
Mon 08:33:25 PM 43.2789 -85.5419 179° South 139 160 2,800 -290 Descending Chicago Center
Mon 08:34:27 PM 43.2308 -85.5408 179° South 142 163 2,500 -97 Descending Chicago Center
Mon 08:35:29 PM 43.1928 -85.5394 178° South 140 161 2,600 48 Climbing Chicago Center
Mon 08:36:31 PM 43.1553 -85.5381 178° South 137 158 2,600  Level Chicago Center
Mon 08:37:33 PM 43.1178 -85.5375 179° South 136 157 2,600  Level Chicago Center
Mon 08:38:35 PM 43.0792 -85.5378 180° South 137 158 2,600  Level Chicago Center
Mon 08:39:37 PM 43.0403 -85.5367 179° South 138 159 2,600  Level Chicago Center
Mon 08:40:39 PM 43.0031 -85.5356 179° South 137 158 2,600 -48 Level Chicago Center
Mon 08:41:41 PM 42.9569 -85.5333 178° South 137 158 2,500 -484 Descending Chicago Center
Mon 08:42:43 PM 42.9219 -85.5264 172° South 133 153 1,600 -871 Descending Chicago Center

Login

Don't have an account? Register now (free) for customized features, flight alerts, and more!